createdAt,value
2018-06-25T00:01:14.445Z,72.74
2018-06-25T00:02:50.425Z,72.75
2018-06-25T00:04:27.872Z,73.16
2018-06-25T00:06:03.882Z,73.39
2018-06-25T00:07:39.800Z,73.68
2018-06-25T00:09:15.758Z,73.27
2018-06-25T00:10:51.490Z,73.21
2018-06-25T00:12:27.324Z,73.37
2018-06-25T00:14:03.281Z,73.25
2018-06-25T00:15:39.266Z,73.54
2018-06-25T00:17:15.239Z,73.63
2018-06-25T00:18:51.205Z,73.65
2018-06-25T00:20:27.149Z,73.82
2018-06-25T00:22:03.189Z,74.05
2018-06-25T00:23:39.136Z,74.22
2018-06-25T00:25:15.103Z,74.17
2018-06-25T00:26:52.148Z,74.53
2018-06-25T00:28:28.509Z,74.48
2018-06-25T00:30:04.518Z,74.80
2018-06-25T00:31:40.865Z,74.84
2018-06-25T00:33:17.281Z,74.95
2018-06-25T00:34:53.285Z,75.46
2018-06-25T00:36:29.341Z,75.53
2018-06-25T00:38:05.445Z,76.03
2018-06-25T00:39:41.386Z,76.14
2018-06-25T00:41:18.466Z,75.82
2018-06-25T00:42:56.606Z,75.50
2018-06-25T00:44:32.588Z,75.40
2018-06-25T00:46:08.553Z,75.27
2018-06-25T00:47:44.645Z,75.32
2018-06-25T00:49:20.615Z,75.22
2018-06-25T00:50:56.822Z,75.65
2018-06-25T00:52:32.804Z,75.40
2018-06-25T00:54:09.361Z,74.94
2018-06-25T00:55:45.402Z,74.83
2018-06-25T00:57:22.033Z,74.88
2018-06-25T00:59:14.924Z,75.05
2018-06-25T01:00:52.181Z,74.85
2018-06-25T01:02:28.652Z,74.91
2018-06-25T01:04:04.701Z,74.81
2018-06-25T01:05:40.700Z,74.69
2018-06-25T01:07:17.485Z,74.54
2018-06-25T01:08:53.482Z,74.88
2018-06-25T01:10:29.446Z,74.93
2018-06-25T01:12:05.455Z,74.70
2018-06-25T01:13:41.435Z,74.75
2018-06-25T01:15:17.795Z,74.95
2018-06-25T01:16:54.794Z,74.70
2018-06-25T01:18:30.982Z,74.65
2018-06-25T01:20:07.037Z,74.48
2018-06-25T01:21:43.048Z,74.62
2018-06-25T01:23:19.652Z,74.67
2018-06-25T01:24:55.748Z,74.77
2018-06-25T01:26:31.848Z,74.83
2018-06-25T01:28:07.878Z,74.74
2018-06-25T01:29:43.885Z,75.16
2018-06-25T01:31:19.854Z,74.81
2018-06-25T01:32:57.031Z,74.88
2018-06-25T01:34:33.129Z,74.90
2018-06-25T01:36:08.911Z,74.79
2018-06-25T01:37:44.757Z,74.46
2018-06-25T01:39:20.857Z,74.83
2018-06-25T01:40:56.678Z,74.66
2018-06-25T01:42:32.499Z,74.65
2018-06-25T01:44:08.619Z,74.83
2018-06-25T01:45:44.618Z,75.00
2018-06-25T01:47:20.729Z,75.06
2018-06-25T01:48:57.265Z,74.96
2018-06-25T01:50:33.383Z,74.87
2018-06-25T01:52:13.088Z,75.13
2018-06-25T01:53:50.061Z,74.85
2018-06-25T01:55:26.509Z,75.14
2018-06-25T01:57:02.572Z,75.11
2018-06-25T01:58:38.419Z,74.89
2018-06-25T02:00:14.400Z,74.77
2018-06-25T02:01:50.411Z,74.34
2018-06-25T02:03:26.429Z,74.33
2018-06-25T02:05:02.497Z,74.36
2018-06-25T02:06:40.739Z,74.33
2018-06-25T02:08:16.771Z,74.40
2018-06-25T02:09:52.845Z,73.79
2018-06-25T02:11:28.890Z,73.72
2018-06-25T02:13:04.891Z,74.26
2018-06-25T02:14:40.915Z,74.15
2018-06-25T02:16:16.915Z,74.25
2018-06-25T02:17:52.865Z,75.29
2018-06-25T02:19:28.866Z,75.49
2018-06-25T02:21:04.862Z,75.46
2018-06-25T02:22:40.860Z,75.40
2018-06-25T02:24:16.883Z,75.73
2018-06-25T02:25:52.881Z,75.61
2018-06-25T02:27:28.888Z,75.79
2018-06-25T02:29:05.008Z,75.86
2018-06-25T02:30:41.024Z,75.57
2018-06-25T02:32:17.070Z,75.63
2018-06-25T02:33:53.120Z,75.87
2018-06-25T02:35:29.143Z,75.55
2018-06-25T02:37:05.734Z,75.62
2018-06-25T02:38:41.854Z,75.62
2018-06-25T02:40:17.887Z,75.31
2018-06-25T02:41:53.634Z,75.36
2018-06-25T02:43:29.411Z,75.12
2018-06-25T02:45:05.532Z,74.83
2018-06-25T02:46:41.283Z,74.99
2018-06-25T02:48:17.232Z,74.80
2018-06-25T02:49:53.360Z,74.96
2018-06-25T02:51:29.378Z,74.64
2018-06-25T02:53:05.424Z,74.77
2018-06-25T02:54:41.426Z,75.39
2018-06-25T02:56:17.437Z,75.27
2018-06-25T02:57:53.389Z,75.11
2018-06-25T02:59:29.400Z,75.27
2018-06-25T03:01:05.466Z,75.17
2018-06-25T03:02:41.481Z,75.27
2018-06-25T03:04:17.496Z,75.06
2018-06-25T03:05:53.536Z,75.46
2018-06-25T03:07:29.570Z,75.24
2018-06-25T03:09:08.687Z,75.27
2018-06-25T03:10:44.648Z,75.78
2018-06-25T03:12:21.530Z,75.65
2018-06-25T03:13:57.536Z,75.56
2018-06-25T03:15:33.283Z,75.55
2018-06-25T03:17:09.083Z,75.50
2018-06-25T03:18:45.113Z,75.45
2018-06-25T03:20:21.368Z,75.47
2018-06-25T03:21:57.479Z,75.49
2018-06-25T03:23:33.480Z,75.29
2018-06-25T03:25:09.487Z,75.49
2018-06-25T03:26:45.231Z,75.63
2018-06-25T03:28:21.033Z,75.75
2018-06-25T03:29:57.032Z,76.10
2018-06-25T03:31:33.052Z,76.31
2018-06-25T03:33:09.051Z,76.39
2018-06-25T03:34:50.011Z,76.21
2018-06-25T03:36:26.018Z,76.11
2018-06-25T03:38:02.063Z,76.27
2018-06-25T03:39:38.039Z,76.09
2018-06-25T03:41:14.041Z,76.50
2018-06-25T03:42:50.050Z,76.36
2018-06-25T03:44:26.077Z,76.48
2018-06-25T03:46:02.096Z,76.53
2018-06-25T03:47:38.106Z,76.22
2018-06-25T03:49:14.157Z,76.41
2018-06-25T03:50:50.212Z,76.58
2018-06-25T03:52:26.274Z,76.70
2018-06-25T03:54:02.264Z,76.92
2018-06-25T03:55:38.265Z,76.84
2018-06-25T03:57:14.035Z,77.15
2018-06-25T03:58:50.119Z,77.18
2018-06-25T04:00:26.153Z,77.11
2018-06-25T04:02:02.195Z,76.96
2018-06-25T04:03:38.321Z,76.83
2018-06-25T04:05:14.417Z,76.63
2018-06-25T04:06:50.454Z,76.49
2018-06-25T04:08:26.441Z,76.36
2018-06-25T04:10:04.076Z,76.10
2018-06-25T04:11:40.754Z,76.16
2018-06-25T04:13:17.436Z,76.23
2018-06-25T04:14:53.493Z,76.21
2018-06-25T04:16:29.949Z,76.19
2018-06-25T04:18:06.465Z,76.33
2018-06-25T04:19:46.439Z,76.55
2018-06-25T04:21:24.286Z,76.28
2018-06-25T04:23:00.332Z,76.13
2018-06-25T04:24:38.111Z,76.05
2018-06-25T04:26:19.269Z,75.84
2018-06-25T04:28:02.274Z,76.01
2018-06-25T04:29:40.660Z,76.33
2018-06-25T04:31:17.256Z,75.94
2018-06-25T04:32:53.318Z,76.29
2018-06-25T04:34:30.062Z,76.03
2018-06-25T04:36:08.556Z,76.42
2018-06-25T04:37:52.757Z,76.48
2018-06-25T04:39:30.980Z,76.35
2018-06-25T04:41:07.828Z,76.22
2018-06-25T04:42:47.950Z,76.22
2018-06-25T04:44:25.090Z,76.31
2018-06-25T04:47:54.798Z,76.35
2018-06-25T04:49:30.803Z,76.24
2018-06-25T04:51:07.357Z,76.12
2018-06-25T04:52:48.980Z,75.62
2018-06-25T04:54:25.520Z,75.63
2018-06-25T04:56:08.967Z,75.38
2018-06-25T04:57:46.274Z,75.64
2018-06-25T04:59:25.292Z,75.37
2018-06-25T05:01:07.063Z,75.20
2018-06-25T05:02:45.779Z,74.76
2018-06-25T05:04:32.214Z,74.78
2018-06-25T05:06:09.958Z,74.27
2018-06-25T05:07:46.770Z,74.20
2018-06-25T05:09:25.036Z,73.93
2018-06-25T05:11:01.179Z,73.97
2018-06-25T05:12:40.669Z,73.72
2018-06-25T05:14:17.186Z,73.67
2018-06-25T05:16:00.627Z,73.28
2018-06-25T05:17:39.049Z,73.38
2018-06-25T05:19:25.401Z,73.12
2018-06-25T05:21:02.834Z,72.60
2018-06-25T05:22:41.397Z,72.66
2018-06-25T05:24:23.242Z,72.55
2018-06-25T05:26:08.065Z,72.62
2018-06-25T05:27:47.003Z,72.71
2018-06-25T05:29:23.009Z,72.47
2018-06-25T05:30:58.879Z,72.77
2018-06-25T05:32:35.124Z,72.77
2018-06-25T05:34:19.427Z,72.50
2018-06-25T05:35:58.614Z,72.37
2018-06-25T05:37:37.596Z,72.28
2018-06-25T05:39:16.493Z,72.08
2018-06-25T05:40:52.604Z,71.77
2018-06-25T05:42:28.363Z,71.82
2018-06-25T05:44:04.210Z,71.60
2018-06-25T05:45:40.255Z,71.98
2018-06-25T05:47:16.039Z,72.12
2018-06-25T05:48:51.862Z,72.02
2018-06-25T05:50:27.862Z,72.02
2018-06-25T05:52:21.635Z,71.84
2018-06-25T05:54:00.072Z,71.72
2018-06-25T05:55:36.367Z,71.78
2018-06-25T05:57:13.434Z,71.73
2018-06-25T05:58:50.110Z,71.24
2018-06-25T06:00:28.521Z,71.47
2018-06-25T06:02:05.580Z,71.70
2018-06-25T06:03:41.567Z,71.32
2018-06-25T06:05:17.781Z,70.88
2018-06-25T06:06:54.178Z,70.67
2018-06-25T06:08:33.297Z,70.66
2018-06-25T06:10:09.698Z,70.70
2018-06-25T06:11:46.089Z,70.25
2018-06-25T06:13:31.402Z,70.31
2018-06-25T06:15:13.073Z,69.77
2018-06-25T06:16:49.268Z,69.50
2018-06-25T06:18:27.674Z,69.47
2018-06-25T06:20:03.693Z,69.28
2018-06-25T06:21:39.720Z,69.37
2018-06-25T06:23:15.691Z,69.10
2018-06-25T06:24:51.670Z,69.06
2018-06-25T06:26:27.487Z,68.98
2018-06-25T06:28:03.271Z,68.68
2018-06-25T06:29:39.225Z,68.29
2018-06-25T06:31:14.886Z,67.96
2018-06-25T06:33:00.552Z,67.99
2018-06-25T06:34:41.858Z,67.73
2018-06-25T06:36:32.439Z,67.38
2018-06-25T06:38:24.387Z,67.47
2018-06-25T06:41:54.731Z,67.30
2018-06-25T06:43:37.059Z,66.70
2018-06-25T06:45:13.793Z,65.98
2018-06-25T06:46:58.927Z,66.42
2018-06-25T06:48:40.833Z,66.17
2018-06-25T06:50:23.943Z,65.76
2018-06-25T06:52:01.636Z,65.08
2018-06-25T06:53:46.966Z,64.63
2018-06-25T06:55:26.182Z,64.35
2018-06-25T06:57:03.525Z,63.48
2018-06-25T06:58:41.109Z,63.45
2018-06-25T07:00:23.200Z,62.95
2018-06-25T07:02:02.166Z,62.32
2018-06-25T07:03:50.741Z,61.70
2018-06-25T07:05:27.723Z,61.63
2018-06-25T07:07:10.527Z,61.06
2018-06-25T07:08:49.309Z,60.12
2018-06-25T07:10:25.444Z,59.52
2018-06-25T07:12:01.462Z,60.30
2018-06-25T07:13:37.573Z,59.69
2018-06-25T07:15:13.618Z,59.30
2018-06-25T07:16:49.725Z,59.45
2018-06-25T07:18:25.728Z,58.96
2018-06-25T07:20:01.720Z,58.02
2018-06-25T07:21:38.138Z,57.14
2018-06-25T07:23:14.159Z,56.59
2018-06-25T07:24:50.169Z,56.48
2018-06-25T07:26:26.561Z,56.82
2018-06-25T07:28:02.574Z,56.82
2018-06-25T07:29:40.198Z,57.51
2018-06-25T07:31:16.269Z,57.15
2018-06-25T07:32:52.285Z,57.90
2018-06-25T07:34:28.344Z,58.49
2018-06-25T07:36:04.211Z,58.91
2018-06-25T07:37:41.213Z,59.04
2018-06-25T07:39:17.227Z,58.84
2018-06-25T07:40:53.258Z,59.04
2018-06-25T07:42:29.494Z,59.18
2018-06-25T07:44:05.541Z,58.77
2018-06-25T07:45:41.580Z,59.12
2018-06-25T07:47:17.739Z,59.66
2018-06-25T07:48:53.612Z,59.56
2018-06-25T07:50:29.766Z,59.47
2018-06-25T07:52:05.780Z,58.18
2018-06-25T07:53:41.910Z,58.17
2018-06-25T07:55:17.808Z,57.28
2018-06-25T07:56:53.774Z,57.96
2018-06-25T07:58:29.827Z,57.97
2018-06-25T08:00:06.552Z,58.06
2018-06-25T08:01:42.598Z,57.37
2018-06-25T08:03:18.618Z,56.96
2018-06-25T08:04:54.726Z,57.00
2018-06-25T08:06:30.745Z,56.67
2018-06-25T08:08:06.578Z,56.14
2018-06-25T08:09:42.625Z,55.43
2018-06-25T08:11:18.646Z,55.61
2018-06-25T08:12:54.737Z,55.77
2018-06-25T08:14:30.730Z,55.34
2018-06-25T08:16:07.021Z,55.54
2018-06-25T08:17:43.035Z,55.08
2018-06-25T08:19:19.018Z,54.98
2018-06-25T08:20:55.016Z,54.22
2018-06-25T08:22:30.755Z,53.30
2018-06-25T08:24:06.347Z,53.30
2018-06-25T08:25:42.125Z,52.19
2018-06-25T08:27:18.126Z,52.41
2018-06-25T08:28:54.138Z,51.71
2018-06-25T08:30:30.219Z,51.11
2018-06-25T08:32:06.208Z,51.18
2018-06-25T08:33:42.215Z,50.52
2018-06-25T08:35:18.221Z,50.27
2018-06-25T08:36:54.275Z,50.05
2018-06-25T08:38:30.222Z,51.02
2018-06-25T08:40:06.356Z,51.38
2018-06-25T08:41:42.353Z,50.61
2018-06-25T08:43:18.480Z,50.59
2018-06-25T08:44:54.422Z,50.54
2018-06-25T08:46:30.532Z,50.53
2018-06-25T08:48:07.358Z,49.34
2018-06-25T08:49:43.368Z,49.25
2018-06-25T08:51:20.615Z,49.48
2018-06-25T08:52:56.379Z,48.74
2018-06-25T08:54:32.252Z,49.57
2018-06-25T08:56:08.256Z,49.95
2018-06-25T08:57:44.235Z,49.39
2018-06-25T08:59:20.247Z,49.69
2018-06-25T09:00:56.208Z,49.79
2018-06-25T09:02:33.415Z,49.39
2018-06-25T09:04:09.427Z,48.97
2018-06-25T09:05:45.422Z,49.55
2018-06-25T09:07:21.418Z,50.08
2018-06-25T09:08:57.699Z,49.49
2018-06-25T09:10:33.948Z,49.93
2018-06-25T09:12:09.743Z,50.76
2018-06-25T09:13:49.603Z,50.70
2018-06-25T09:15:25.897Z,51.03
2018-06-25T09:17:01.916Z,51.45
2018-06-25T09:18:37.966Z,51.55
2018-06-25T09:20:18.395Z,51.41
2018-06-25T09:21:55.458Z,50.83
2018-06-25T09:23:31.459Z,49.95
2018-06-25T09:25:12.307Z,50.28
2018-06-25T09:26:49.503Z,51.02
2018-06-25T09:28:30.376Z,51.18
2018-06-25T09:30:07.944Z,51.52
2018-06-25T09:31:43.966Z,49.75
2018-06-25T09:33:20.026Z,50.72
2018-06-25T09:34:56.326Z,50.92
2018-06-25T09:36:32.368Z,51.29
2018-06-25T09:38:09.832Z,50.66
2018-06-25T09:39:45.906Z,50.67
2018-06-25T09:41:21.775Z,50.29
2018-06-25T09:42:57.580Z,50.55
2018-06-25T09:44:34.926Z,50.10
2018-06-25T09:46:11.941Z,49.06
2018-06-25T09:47:48.013Z,48.30
2018-06-25T09:49:24.012Z,47.65
2018-06-25T09:51:00.816Z,47.25
2018-06-25T09:52:36.938Z,46.88
2018-06-25T09:54:13.002Z,46.90
2018-06-25T09:55:49.092Z,47.20
2018-06-25T09:57:25.182Z,47.33
2018-06-25T09:59:01.264Z,46.98
2018-06-25T10:00:42.815Z,46.49
2018-06-25T10:02:19.775Z,46.29
2018-06-25T10:04:01.300Z,46.45
2018-06-25T10:05:37.332Z,46.52
2018-06-25T10:07:14.023Z,45.55
2018-06-25T10:08:50.097Z,46.39
2018-06-25T10:10:26.221Z,46.54
2018-06-25T10:12:02.213Z,46.34
2018-06-25T10:13:38.231Z,45.79
2018-06-25T10:15:14.321Z,45.67
2018-06-25T10:16:50.322Z,45.57
2018-06-25T10:18:26.364Z,45.39
2018-06-25T10:20:02.442Z,45.71
2018-06-25T10:21:38.456Z,45.84
2018-06-25T10:23:14.462Z,44.16
2018-06-25T10:24:50.467Z,44.73
2018-06-25T10:26:26.491Z,44.01
2018-06-25T10:28:02.870Z,44.13
2018-06-25T10:29:38.888Z,45.08
2018-06-25T10:31:14.929Z,44.80
2018-06-25T10:32:50.949Z,44.85
2018-06-25T10:34:27.004Z,44.43
2018-06-25T10:36:03.256Z,44.83
2018-06-25T10:37:39.341Z,45.40
2018-06-25T10:39:15.403Z,45.00
2018-06-25T10:40:52.685Z,45.28
2018-06-25T10:42:28.539Z,46.38
2018-06-25T10:44:05.174Z,46.24
2018-06-25T10:45:41.182Z,45.91
2018-06-25T10:47:17.208Z,45.76
2018-06-25T10:48:53.300Z,45.75
2018-06-25T10:50:29.305Z,45.13
2018-06-25T10:52:05.430Z,45.52
2018-06-25T10:53:41.466Z,45.20
2018-06-25T10:55:17.511Z,44.01
2018-06-25T10:56:53.526Z,42.89
2018-06-25T10:58:29.703Z,42.66
2018-06-25T11:00:06.844Z,42.34
2018-06-25T11:01:42.695Z,41.09
2018-06-25T11:03:18.693Z,41.62
2018-06-25T11:04:54.673Z,41.52
2018-06-25T11:06:30.757Z,40.71
2018-06-25T11:08:06.874Z,40.20
2018-06-25T11:09:42.932Z,40.17
2018-06-25T11:11:18.918Z,39.37
2018-06-25T11:12:54.789Z,39.52
2018-06-25T11:14:30.742Z,41.10
2018-06-25T11:16:07.761Z,42.49
2018-06-25T11:17:43.531Z,41.95
2018-06-25T11:19:19.296Z,42.34
2018-06-25T11:20:55.305Z,42.66
2018-06-25T11:22:31.341Z,42.60
2018-06-25T11:24:07.842Z,43.04
2018-06-25T11:25:44.042Z,42.54
2018-06-25T11:27:20.162Z,41.98
2018-06-25T11:28:56.076Z,41.33
2018-06-25T11:30:32.060Z,41.65
2018-06-25T11:32:10.325Z,41.19
2018-06-25T11:33:48.219Z,39.97
2018-06-25T11:35:24.124Z,39.61
2018-06-25T11:37:03.823Z,39.25
2018-06-25T11:38:40.191Z,38.30
2018-06-25T11:40:16.317Z,38.50
2018-06-25T11:41:53.246Z,37.79
2018-06-25T11:43:29.346Z,38.11
2018-06-25T11:45:08.630Z,39.20
2018-06-25T11:46:46.120Z,38.76
2018-06-25T11:48:22.588Z,38.85
2018-06-25T11:50:01.462Z,37.48
2018-06-25T11:51:40.248Z,37.15
2018-06-25T11:53:17.894Z,37.86
2018-06-25T11:54:59.058Z,37.47
2018-06-25T11:56:40.522Z,37.62
2018-06-25T11:58:22.549Z,38.13
2018-06-25T12:00:02.479Z,37.83
2018-06-25T12:01:45.409Z,38.24
2018-06-25T12:03:25.623Z,38.90
2018-06-25T12:05:01.893Z,38.95
2018-06-25T12:06:38.624Z,38.28
2018-06-25T12:08:18.997Z,37.59
2018-06-25T12:09:56.938Z,37.25
2018-06-25T12:11:33.560Z,37.00
2018-06-25T12:13:11.051Z,36.75
2018-06-25T12:14:48.338Z,37.33
2018-06-25T12:16:59.222Z,36.95
2018-06-25T12:19:08.532Z,36.65
2018-06-25T12:20:47.239Z,36.86
2018-06-25T12:22:23.763Z,36.34
2018-06-25T12:24:04.973Z,35.97
2018-06-25T12:25:42.527Z,36.42
2018-06-25T12:27:20.747Z,37.23
2018-06-25T12:28:57.437Z,38.58
2018-06-25T12:30:34.606Z,38.84
2018-06-25T12:32:11.122Z,38.86
2018-06-25T12:33:48.908Z,39.52
2018-06-25T12:35:25.379Z,39.74
2018-06-25T12:37:01.423Z,39.63
2018-06-25T12:38:37.766Z,39.49
2018-06-25T12:40:14.316Z,39.80
2018-06-25T12:41:50.434Z,39.66
2018-06-25T12:43:26.863Z,39.36
2018-06-25T12:45:05.347Z,38.83
2018-06-25T12:46:44.134Z,38.54
2018-06-25T12:48:22.647Z,37.84
2018-06-25T12:50:01.108Z,38.41
2018-06-25T12:51:40.407Z,38.02
2018-06-25T12:53:19.703Z,38.05
2018-06-25T12:54:57.942Z,37.92
2018-06-25T12:56:34.608Z,37.34
2018-06-25T12:58:13.598Z,38.07
2018-06-25T12:59:56.286Z,36.74
2018-06-25T13:01:39.929Z,35.68
2018-06-25T13:03:16.294Z,37.85
2018-06-25T13:04:51.855Z,37.33
2018-06-25T13:06:28.691Z,37.07
2018-06-25T13:08:06.420Z,36.21
2018-06-25T13:09:42.858Z,35.96
2018-06-25T13:11:19.260Z,36.03
2018-06-25T13:12:58.028Z,35.26
2018-06-25T13:14:35.116Z,34.96
2018-06-25T13:16:12.897Z,35.04
2018-06-25T13:17:49.122Z,35.27
2018-06-25T13:19:25.195Z,35.01
2018-06-25T13:21:03.951Z,35.55
2018-06-25T13:22:45.628Z,35.44
2018-06-25T13:24:34.357Z,35.54
2018-06-25T13:26:16.705Z,36.06
2018-06-25T13:27:53.931Z,35.80
2018-06-25T13:29:35.931Z,36.04
2018-06-25T13:31:11.833Z,35.76
2018-06-25T13:32:47.660Z,35.18
2018-06-25T13:34:23.879Z,35.07
2018-06-25T13:35:59.813Z,36.03
2018-06-25T13:37:35.802Z,35.52
2018-06-25T13:39:11.884Z,36.14
2018-06-25T13:40:47.993Z,36.57
2018-06-25T13:42:24.904Z,36.75
2018-06-25T13:44:00.958Z,36.39
2018-06-25T13:45:37.070Z,35.28
2018-06-25T13:47:13.147Z,34.91
2018-06-25T13:48:49.476Z,35.05
2018-06-25T13:50:25.593Z,34.43
2018-06-25T13:52:01.592Z,34.70
2018-06-25T13:53:37.582Z,35.16
2018-06-25T13:55:13.588Z,35.44
2018-06-25T13:56:49.662Z,35.13
2018-06-25T13:58:25.720Z,34.85
2018-06-25T14:00:01.747Z,34.96
2018-06-25T14:01:37.858Z,33.46
2018-06-25T14:03:13.890Z,33.40
2018-06-25T14:04:49.921Z,33.26
2018-06-25T14:06:25.940Z,32.83
2018-06-25T14:08:01.812Z,32.44
2018-06-25T14:09:37.736Z,33.29
2018-06-25T14:11:13.548Z,33.37
2018-06-25T14:12:49.386Z,33.36
2018-06-25T14:14:25.402Z,33.62
2018-06-25T14:16:01.471Z,33.88
2018-06-25T14:17:37.511Z,33.92
2018-06-25T14:19:13.565Z,33.89
2018-06-25T14:20:49.647Z,34.34
2018-06-25T14:22:25.693Z,34.75
2018-06-25T14:24:07.063Z,35.21
2018-06-25T14:25:48.252Z,34.94
2018-06-25T14:27:29.186Z,34.85
2018-06-25T14:29:10.623Z,34.93
2018-06-25T14:30:54.698Z,34.65
2018-06-25T14:32:35.069Z,33.86
2018-06-25T14:34:25.056Z,34.03
2018-06-25T14:36:06.541Z,33.47
2018-06-25T14:37:42.801Z,33.50
2018-06-25T14:39:28.356Z,33.64
2018-06-25T14:41:04.384Z,33.15
2018-06-25T14:42:40.732Z,33.35
2018-06-25T14:44:16.770Z,33.34
2018-06-25T14:45:53.172Z,33.47
2018-06-25T14:47:29.396Z,32.82
2018-06-25T14:49:05.496Z,33.36
2018-06-25T14:50:41.515Z,33.44
2018-06-25T14:52:17.635Z,33.82
2018-06-25T14:53:53.629Z,34.31
2018-06-25T14:55:29.736Z,34.72
2018-06-25T14:57:05.798Z,33.50
2018-06-25T14:58:42.152Z,33.12
2018-06-25T15:00:20.803Z,33.72
2018-06-25T15:01:57.891Z,33.30
2018-06-25T15:03:34.124Z,33.32
2018-06-25T15:05:10.384Z,33.18
2018-06-25T15:06:48.067Z,33.09
2018-06-25T15:08:24.325Z,32.80
2018-06-25T15:10:02.435Z,32.66
2018-06-25T15:11:40.658Z,32.33
2018-06-25T15:13:17.029Z,32.27
2018-06-25T15:14:52.949Z,32.89
2018-06-25T15:16:29.503Z,33.22
2018-06-25T15:18:06.887Z,32.89
2018-06-25T15:19:42.936Z,32.81
2018-06-25T15:21:19.778Z,32.88
2018-06-25T15:22:56.388Z,32.22
2018-06-25T15:24:33.654Z,32.54
2018-06-25T15:26:09.791Z,32.56
2018-06-25T15:27:45.788Z,32.64
2018-06-25T15:29:22.079Z,32.80
2018-06-25T15:30:58.646Z,32.64
2018-06-25T15:32:34.700Z,32.97
2018-06-25T15:34:12.086Z,33.09
2018-06-25T15:35:48.467Z,32.63
2018-06-25T15:37:24.445Z,32.80
2018-06-25T15:39:01.170Z,33.77
2018-06-25T15:40:42.061Z,34.33
2018-06-25T15:42:18.080Z,34.36
2018-06-25T15:43:54.162Z,34.13
2018-06-25T15:45:30.776Z,34.23
2018-06-25T15:47:08.170Z,34.98
2018-06-25T15:48:48.766Z,34.33
2018-06-25T15:50:24.815Z,34.32
2018-06-25T15:52:00.904Z,34.25
2018-06-25T15:53:37.661Z,34.17
2018-06-25T15:55:13.947Z,34.20
2018-06-25T15:56:51.044Z,33.91
2018-06-25T15:58:27.497Z,33.40
2018-06-25T16:00:04.629Z,33.40
2018-06-25T16:01:40.759Z,33.05
2018-06-25T16:03:17.168Z,33.12
2018-06-25T16:04:53.438Z,33.15
2018-06-25T16:06:29.445Z,32.53
2018-06-25T16:08:06.043Z,32.57
2018-06-25T16:09:44.394Z,32.88
2018-06-25T16:11:20.578Z,33.12
2018-06-25T16:12:58.023Z,33.74
2018-06-25T16:14:34.631Z,33.21
2018-06-25T16:16:10.969Z,33.31
2018-06-25T16:17:59.036Z,34.07
2018-06-25T16:19:41.012Z,33.98
2018-06-25T16:21:17.118Z,34.02
2018-06-25T16:22:53.215Z,34.16
2018-06-25T16:24:31.711Z,33.84
2018-06-25T16:26:08.955Z,33.66
2018-06-25T16:27:47.325Z,33.78
2018-06-25T16:29:28.182Z,33.86
2018-06-25T16:31:04.512Z,33.40
2018-06-25T16:32:41.232Z,32.95
2018-06-25T16:34:17.895Z,33.95
2018-06-25T16:35:56.194Z,33.51
2018-06-25T16:37:35.114Z,33.59
2018-06-25T16:39:14.179Z,33.49
2018-06-25T16:41:03.898Z,33.53
2018-06-25T16:42:40.277Z,34.83
2018-06-25T16:44:17.809Z,33.90
2018-06-25T16:45:53.797Z,33.69
2018-06-25T16:47:32.497Z,33.73
2018-06-25T16:49:08.772Z,33.71
2018-06-25T16:50:45.838Z,33.60
2018-06-25T16:52:21.765Z,33.66
2018-06-25T16:53:57.789Z,34.60
2018-06-25T16:55:34.117Z,35.00
2018-06-25T16:57:14.160Z,34.28
2018-06-25T16:58:51.559Z,33.36
2018-06-25T17:00:27.692Z,33.17
2018-06-25T17:02:03.719Z,34.21
2018-06-25T17:03:39.777Z,34.41
2018-06-25T17:05:15.830Z,34.34
2018-06-25T17:06:51.916Z,34.25
2018-06-25T17:08:28.084Z,33.79
2018-06-25T17:10:10.776Z,36.13
2018-06-25T17:11:59.743Z,35.27
2018-06-25T17:13:39.625Z,33.18
2018-06-25T17:15:17.688Z,34.77
2018-06-25T17:16:57.264Z,34.16
2018-06-25T17:18:37.246Z,34.77
2018-06-25T17:20:23.260Z,35.16
2018-06-25T17:22:00.202Z,34.57
2018-06-25T17:23:37.116Z,35.58
2018-06-25T17:25:16.504Z,37.58
2018-06-25T17:26:59.690Z,35.78
2018-06-25T17:28:35.926Z,39.20
2018-06-25T17:30:14.682Z,37.83
2018-06-25T17:31:51.011Z,37.67
2018-06-25T17:33:28.608Z,39.55
2018-06-25T17:35:06.891Z,39.35
2018-06-25T17:36:43.342Z,39.80
2018-06-25T17:38:19.725Z,39.11
2018-06-25T17:39:55.811Z,40.90
2018-06-25T17:41:31.994Z,41.21
2018-06-25T17:43:08.029Z,41.74
2018-06-25T17:44:44.058Z,42.91
2018-06-25T17:46:20.118Z,43.98
2018-06-25T17:47:56.386Z,44.87
2018-06-25T17:49:32.463Z,42.16
2018-06-25T17:51:14.689Z,42.02
2018-06-25T17:52:51.602Z,40.15
2018-06-25T17:54:32.633Z,42.85
2018-06-25T17:56:11.785Z,40.59
2018-06-25T17:57:53.059Z,39.73
2018-06-25T17:59:31.795Z,41.37
2018-06-25T18:01:11.931Z,42.71
2018-06-25T18:02:49.429Z,43.85
2018-06-25T18:04:26.397Z,44.02
2018-06-25T18:06:04.238Z,43.09
2018-06-25T18:07:41.320Z,42.47
2018-06-25T18:09:19.813Z,42.00
2018-06-25T18:10:56.765Z,42.64
2018-06-25T18:12:33.340Z,42.55
2018-06-25T18:14:09.568Z,43.47
2018-06-25T18:15:49.319Z,42.82
2018-06-25T18:17:31.743Z,42.73
2018-06-25T18:19:13.623Z,42.33
2018-06-25T18:21:07.048Z,42.91
2018-06-25T18:22:44.658Z,43.31
2018-06-25T18:24:54.052Z,43.74
2018-06-25T18:26:34.511Z,44.02
2018-06-25T18:28:12.172Z,44.37
2018-06-25T18:29:54.415Z,43.19
2018-06-25T18:31:31.084Z,43.19
2018-06-25T18:33:08.489Z,43.87
2018-06-25T18:34:48.794Z,43.77
2018-06-25T18:36:37.775Z,45.67
2018-06-25T18:38:29.250Z,44.05
2018-06-25T18:40:25.520Z,43.70
2018-06-25T18:42:51.445Z,43.93
2018-06-25T18:47:08.758Z,46.19
2018-06-25T18:48:45.816Z,46.33
2018-06-25T18:50:23.371Z,46.43
2018-06-25T18:52:01.672Z,47.50
2018-06-25T18:53:37.478Z,48.80
2018-06-25T18:55:13.979Z,49.27
2018-06-25T18:56:50.137Z,49.60
2018-06-25T18:58:26.510Z,50.26
2018-06-25T19:00:02.595Z,50.66
2018-06-25T19:01:39.542Z,50.95
2018-06-25T19:03:15.960Z,51.55
2018-06-25T19:04:51.803Z,51.76
2018-06-25T19:06:30.619Z,52.17
2018-06-25T19:08:06.678Z,52.88
2018-06-25T19:09:42.537Z,52.87
2018-06-25T19:11:18.394Z,52.86
2018-06-25T19:12:54.470Z,53.71
2018-06-25T19:14:33.520Z,54.15
2018-06-25T19:16:10.600Z,54.16
2018-06-25T19:18:09.493Z,54.39
2018-06-25T19:19:49.138Z,54.62
2018-06-25T19:21:31.038Z,54.99
2018-06-25T19:23:07.183Z,55.00
2018-06-25T19:24:44.756Z,54.81
2018-06-25T19:26:20.979Z,55.02
2018-06-25T19:27:58.907Z,54.94
2018-06-25T19:29:36.913Z,54.95
2018-06-25T19:31:13.165Z,54.78
2018-06-25T19:32:49.587Z,54.59
2018-06-25T19:34:25.791Z,54.85
2018-06-25T19:36:02.000Z,55.25
2018-06-25T19:37:38.111Z,55.51
2018-06-25T19:39:15.096Z,55.74
2018-06-25T19:40:53.178Z,55.70
2018-06-25T19:42:30.797Z,56.28
2018-06-25T19:44:06.877Z,56.11
2018-06-25T19:45:42.981Z,56.23
2018-06-25T19:47:19.025Z,56.55
2018-06-25T19:48:55.150Z,56.47
2018-06-25T19:50:31.251Z,56.62
2018-06-25T19:52:09.590Z,56.96
2018-06-25T19:53:45.665Z,56.69
2018-06-25T19:55:21.712Z,57.07
2018-06-25T19:56:57.869Z,57.33
2018-06-25T19:58:33.981Z,57.61
2018-06-25T20:00:10.136Z,56.83
2018-06-25T20:01:46.152Z,57.29
2018-06-25T20:03:22.247Z,57.35
2018-06-25T20:04:58.375Z,57.10
2018-06-25T20:06:35.020Z,57.15
2018-06-25T20:08:11.071Z,57.58
2018-06-25T20:09:47.242Z,57.19
2018-06-25T20:11:23.349Z,57.09
2018-06-25T20:12:59.331Z,57.33
2018-06-25T20:14:35.395Z,57.80
2018-06-25T20:16:11.545Z,57.44
2018-06-25T20:17:47.574Z,57.88
2018-06-25T20:19:23.648Z,58.21
2018-06-25T20:20:59.840Z,57.94
2018-06-25T20:22:35.842Z,58.51
2018-06-25T20:24:11.876Z,58.58
2018-06-25T20:25:48.017Z,58.83
2018-06-25T20:27:24.054Z,59.25
2018-06-25T20:29:00.197Z,59.61
2018-06-25T20:30:35.987Z,59.79
2018-06-25T20:32:11.805Z,60.25
2018-06-25T20:33:49.102Z,60.67
2018-06-25T20:35:25.172Z,60.48
2018-06-25T20:37:01.354Z,60.45
2018-06-25T20:38:37.199Z,60.44
2018-06-25T20:40:13.105Z,60.60
2018-06-25T20:41:49.162Z,60.63
2018-06-25T20:43:25.194Z,60.30
2018-06-25T20:45:01.186Z,60.49
2018-06-25T20:46:37.285Z,60.58
2018-06-25T20:48:13.276Z,60.29
2018-06-25T20:49:49.332Z,60.47
2018-06-25T20:51:25.382Z,60.85
2018-06-25T20:53:01.427Z,60.57
2018-06-25T20:54:37.487Z,60.78
2018-06-25T20:56:13.667Z,61.24
2018-06-25T20:57:49.732Z,61.09
2018-06-25T20:59:26.203Z,60.83
2018-06-25T21:01:02.313Z,61.47
2018-06-25T21:02:38.397Z,61.20